Terminal Aerodrome Forecast
Issued by NWS

Home | Current Version | Previous Version | Text Only | Print | Product List | Glossary On
Versions: 1 2 3 4 5 6 7 8 9 10 11 12 13 14 15 16 17 18 19 20 21 22 23 24 25 26 27 28
353
FTUS41 KBUF 130527
TAFJHW
TAF
KJHW 130527Z 1306/1406 33014G24KT 4SM -SN SCT008 BKN015
      TEMPO 1306/1309 BKN008
     FM130900 33014G22KT 4SM -SN BKN008
     FM131300 32014G24KT 4SM -SN BLSN SCT008 OVC015
     FM132100 32012G22KT 4SM -SN BLSN OVC025
     FM140300 33012G18KT 4SM -SN BLSN OVC015
      AMD LTD TO CLD VIS AND WIND=

USA.gov is the U.S. government's official web portal to all federal, state and local government web resources and services.